createdAt,value
2019-02-24T00:00:25.448Z,-1.2
2019-02-24T00:05:02.373Z,-1.3
2019-02-24T00:15:05.336Z,-1.4
2019-02-24T00:25:04.857Z,-1.6
2019-02-24T00:30:38.164Z,-1.6
2019-02-24T00:35:03.078Z,-1.6
2019-02-24T00:40:15.262Z,-1.7
2019-02-24T00:45:05.107Z,-1.7
2019-02-24T00:50:13.247Z,-1.6
2019-02-24T00:55:15.700Z,-1.5
2019-02-24T01:00:05.095Z,-1.4
2019-02-24T01:05:15.115Z,-1.4
2019-02-24T01:10:10.154Z,-1.4
2019-02-24T01:15:05.046Z,-1.3
2019-02-24T01:20:23.255Z,-1.4
2019-02-24T01:25:02.887Z,-1.4
2019-02-24T01:30:05.660Z,-1.4
2019-02-24T01:35:05.681Z,-1.4
2019-02-24T01:40:23.274Z,-1.4
2019-02-24T01:45:38.368Z,-1.4
2019-02-24T01:50:02.313Z,-1.4
2019-02-24T01:55:15.855Z,-1.4
2019-02-24T02:00:05.254Z,-1.4
2019-02-24T02:05:07.729Z,-1.5
2019-02-24T02:15:25.812Z,-1.7
2019-02-24T02:20:25.553Z,-1.8
2019-02-24T02:25:30.360Z,-1.9
2019-02-24T02:30:07.444Z,-1.9
2019-02-24T02:35:02.338Z,-1.9
2019-02-24T02:40:05.294Z,-1.9
2019-02-24T02:45:12.792Z,-1.8
2019-02-24T02:50:02.734Z,-1.8
2019-02-24T02:55:02.664Z,-1.7
2019-02-24T03:00:05.151Z,-1.7
2019-02-24T03:05:02.949Z,-1.7
2019-02-24T03:10:09.918Z,-1.8
2019-02-24T03:20:08.367Z,-1.9
2019-02-24T03:25:20.923Z,-1.9
2019-02-24T03:30:20.624Z,-1.9
2019-02-24T03:35:28.062Z,-1.9
2019-02-24T03:40:07.512Z,-1.9
2019-02-24T03:45:22.644Z,-2
2019-02-24T03:50:02.646Z,-2
2019-02-24T03:55:02.525Z,-2
2019-02-24T04:00:04.992Z,-2.1
2019-02-24T04:05:09.945Z,-2.1
2019-02-24T04:10:09.936Z,-2.1
2019-02-24T04:15:32.801Z,-2
2019-02-24T04:25:20.413Z,-2
2019-02-24T04:30:02.548Z,-2
2019-02-24T04:35:17.690Z,-2.1
2019-02-24T04:40:10.739Z,-2.2
2019-02-24T04:45:08.145Z,-2.3
2019-02-24T04:50:08.137Z,-2.3
2019-02-24T04:55:15.764Z,-2.2
2019-02-24T05:00:10.247Z,-2.2
2019-02-24T05:05:15.178Z,-2.2
2019-02-24T05:10:15.360Z,-2.1
2019-02-24T05:15:07.696Z,-2.1
2019-02-24T05:20:15.403Z,-2.2
2019-02-24T05:25:02.679Z,-2.2
2019-02-24T05:30:05.232Z,-2.3
2019-02-24T05:35:10.225Z,-2.3
2019-02-24T05:40:10.221Z,-2.3
2019-02-24T05:45:02.561Z,-2.3
2019-02-24T05:50:02.523Z,-2.1
2019-02-24T05:55:02.495Z,-2.2
2019-02-24T06:00:02.400Z,-2.2
2019-02-24T06:05:32.674Z,-2.3
2019-02-24T06:10:25.824Z,-2.3
2019-02-24T06:15:25.525Z,-2.2
2019-02-24T06:20:05.003Z,-2.3
2019-02-24T06:25:15.011Z,-2.3
2019-02-24T06:30:08.104Z,-2.4
2019-02-24T06:35:02.883Z,-2.4
2019-02-24T06:45:08.144Z,-2.4
2019-02-24T06:50:05.532Z,-2.3
2019-02-24T06:55:25.613Z,-2.1
2019-02-24T07:00:13.542Z,-2
2019-02-24T07:05:17.574Z,-2
2019-02-24T07:10:08.191Z,-1.8
2019-02-24T07:15:05.440Z,-1.7
2019-02-24T07:20:04.930Z,-1.6
2019-02-24T07:25:04.914Z,-1.5
2019-02-24T07:30:23.038Z,-1.4
2019-02-24T07:35:07.722Z,-1.4
2019-02-24T07:40:05.679Z,-1.4
2019-02-24T07:45:28.348Z,-1.3
2019-02-24T07:50:26.003Z,-1.1
2019-02-24T07:55:28.269Z,-1
2019-02-24T08:00:03.233Z,-1
2019-02-24T08:05:25.869Z,-0.9
2019-02-24T08:10:05.767Z,-0.9
2019-02-24T08:15:13.191Z,-0.8
2019-02-24T08:20:05.719Z,-0.8
2019-02-24T08:25:28.416Z,-0.8
2019-02-24T08:30:07.415Z,-0.8
2019-02-24T08:35:03.154Z,-0.8
2019-02-24T08:40:02.482Z,-0.6
2019-02-24T08:45:04.903Z,-0.4
2019-02-24T08:50:05.480Z,-0.3
2019-02-24T08:55:07.880Z,-0.3
2019-02-24T09:00:10.493Z,-0.3
2019-02-24T09:05:15.399Z,0
2019-02-24T09:10:05.777Z,-0.1
2019-02-24T09:15:05.744Z,0
2019-02-24T09:20:05.264Z,0.2
2019-02-24T09:25:30.452Z,0.4
2019-02-24T09:30:04.953Z,0.6
2019-02-24T09:35:20.077Z,0.8
2019-02-24T09:40:04.958Z,1
2019-02-24T09:45:32.694Z,1.3
2019-02-24T09:50:15.466Z,1.5
2019-02-24T09:55:12.925Z,1.8
2019-02-24T10:00:05.471Z,2
2019-02-24T10:05:10.459Z,2.3
2019-02-24T10:10:02.853Z,2.3
2019-02-24T10:15:10.379Z,3
2019-02-24T10:20:02.312Z,3
2019-02-24T10:25:06.052Z,3.4
2019-02-24T10:30:08.225Z,3.5
2019-02-24T10:35:02.990Z,3.5
2019-02-24T10:40:12.298Z,3.9
2019-02-24T10:45:02.340Z,3.9
2019-02-24T10:50:02.321Z,4.2
2019-02-24T10:55:03.242Z,4.5
2019-02-24T11:00:03.174Z,4.7
2019-02-24T11:05:03.108Z,5
2019-02-24T11:10:27.762Z,5.5
2019-02-24T11:15:02.661Z,5.5
2019-02-24T11:20:05.171Z,6
2019-02-24T11:25:05.113Z,6.2
2019-02-24T11:30:03.064Z,6.2
2019-02-24T11:35:05.623Z,6.6
2019-02-24T11:40:05.638Z,6.8
2019-02-24T11:45:05.489Z,7.2
2019-02-24T11:50:04.983Z,7.4
2019-02-24T11:55:25.077Z,7.6
2019-02-24T12:00:23.241Z,7.8
2019-02-24T12:05:02.983Z,7.8
2019-02-24T12:10:07.429Z,7.9
2019-02-24T12:15:27.716Z,8.1
2019-02-24T12:20:10.267Z,8.3
2019-02-24T12:25:05.110Z,8.4
2019-02-24T12:30:05.529Z,8.6
2019-02-24T12:35:20.674Z,9
2019-02-24T12:40:05.551Z,9.2
2019-02-24T12:45:05.645Z,9.8
2019-02-24T12:50:03.358Z,9.7
2019-02-24T12:55:05.467Z,10.9
2019-02-24T13:00:05.037Z,11.4
2019-02-24T13:05:25.304Z,11.9
2019-02-24T13:10:05.285Z,11.8
2019-02-24T13:15:05.199Z,12.6
2019-02-24T13:20:10.819Z,13.6
2019-02-24T13:25:02.281Z,13.6
2019-02-24T13:30:03.337Z,14.2
2019-02-24T13:35:10.861Z,15.5
2019-02-24T13:40:10.895Z,15.5
2019-02-24T13:45:20.961Z,16
2019-02-24T13:50:02.993Z,16
2019-02-24T13:55:02.986Z,16.1
2019-02-24T14:00:10.668Z,15.2
2019-02-24T14:05:10.086Z,14.9
2019-02-24T14:10:17.762Z,15
2019-02-24T14:15:07.671Z,14.8
2019-02-24T14:20:02.773Z,14.8
2019-02-24T14:25:02.621Z,14.6
2019-02-24T14:30:03.017Z,14.7
2019-02-24T14:35:05.531Z,16.2
2019-02-24T14:40:07.999Z,16
2019-02-24T14:45:08.050Z,16.6
2019-02-24T14:50:03.249Z,16.6
2019-02-24T14:55:03.211Z,16.1
2019-02-24T15:00:05.693Z,15.5
2019-02-24T15:05:03.264Z,15.5
2019-02-24T15:10:05.271Z,14.8
2019-02-24T15:15:02.731Z,14.8
2019-02-24T15:20:05.299Z,14.4
2019-02-24T15:25:20.494Z,14.4
2019-02-24T15:30:02.532Z,14.4
2019-02-24T15:35:02.551Z,14.4
2019-02-24T15:40:20.975Z,14.6
2019-02-24T15:45:20.007Z,14.6
2019-02-24T15:50:03.046Z,14.6
2019-02-24T15:55:05.550Z,13.9
2019-02-24T16:00:02.472Z,13.9
2019-02-24T16:05:02.590Z,13.4
2019-02-24T16:10:23.258Z,12.7
2019-02-24T16:15:03.124Z,12.7
2019-02-24T16:20:15.899Z,12
2019-02-24T16:25:03.124Z,12
2019-02-24T16:30:30.908Z,11.5
2019-02-24T16:35:02.892Z,11.5
2019-02-24T16:40:04.894Z,11.1
2019-02-24T16:45:02.300Z,11
2019-02-24T16:50:03.242Z,10.8
2019-02-24T16:55:10.820Z,10.4
2019-02-24T17:00:05.227Z,10.2
2019-02-24T17:05:04.808Z,9.9
2019-02-24T17:10:26.004Z,9.5
2019-02-24T17:15:10.486Z,9.2
2019-02-24T17:20:18.410Z,8.8
2019-02-24T17:25:05.730Z,8.7
2019-02-24T17:30:30.540Z,8.4
2019-02-24T17:35:02.484Z,8.4
2019-02-24T17:40:02.943Z,8.2
2019-02-24T17:45:20.238Z,7.8
2019-02-24T17:50:22.594Z,7.6
2019-02-24T17:55:10.028Z,7.5
2019-02-24T18:00:05.562Z,7.4
2019-02-24T18:05:02.946Z,7.3
2019-02-24T18:10:02.369Z,7.4
2019-02-24T18:15:02.320Z,7.3
2019-02-24T18:20:35.184Z,7.2
2019-02-24T18:25:03.696Z,7.2
2019-02-24T18:30:05.207Z,0.2
2019-02-24T18:35:17.774Z,6.4
2019-02-24T18:40:23.322Z,6.3
2019-02-24T18:45:03.089Z,6.3
2019-02-24T18:50:03.039Z,6.1
2019-02-24T18:55:03.046Z,6
2019-02-24T19:00:05.498Z,5.8
2019-02-24T19:05:05.437Z,5.6
2019-02-24T19:10:05.352Z,5.5
2019-02-24T19:15:02.304Z,5.5
2019-02-24T19:20:02.440Z,5.4
2019-02-24T19:25:08.264Z,5.1
2019-02-24T19:30:05.163Z,5
2019-02-24T19:35:05.135Z,4.9
2019-02-24T19:40:02.577Z,4.8
2019-02-24T19:45:02.526Z,4.8
2019-02-24T19:50:07.629Z,4.5
2019-02-24T19:55:07.421Z,4.5
2019-02-24T20:00:07.715Z,4.4
2019-02-24T20:05:05.110Z,4.4
2019-02-24T20:10:05.368Z,4.4
2019-02-24T20:15:17.829Z,4.3
2019-02-24T20:20:10.432Z,4.3
2019-02-24T20:25:02.784Z,4.3
2019-02-24T20:30:02.758Z,4.3
2019-02-24T20:35:07.403Z,4.3
2019-02-24T20:40:15.380Z,4.2
2019-02-24T20:45:05.213Z,4.2
2019-02-24T20:50:10.753Z,4.1
2019-02-24T20:55:03.099Z,4.1
2019-02-24T21:00:03.027Z,4
2019-02-24T21:05:05.417Z,3.8
2019-02-24T21:10:02.775Z,3.8
2019-02-24T21:15:17.904Z,3.6
2019-02-24T21:20:05.417Z,3.5
2019-02-24T21:25:02.844Z,3.5
2019-02-24T21:30:20.443Z,3.4
2019-02-24T21:35:05.170Z,3.3
2019-02-24T21:40:05.104Z,3.1
2019-02-24T21:45:04.939Z,2.9
2019-02-24T21:50:05.395Z,2.8
2019-02-24T21:55:05.325Z,2.9
2019-02-24T22:00:08.337Z,2.9
2019-02-24T22:05:08.244Z,2.9
2019-02-24T22:10:05.194Z,2.7
2019-02-24T22:15:05.102Z,2.7
2019-02-24T22:20:08.254Z,2.6
2019-02-24T22:25:03.089Z,2.7
2019-02-24T22:30:08.103Z,2.5
2019-02-24T22:35:02.901Z,2.5
2019-02-24T22:40:03.272Z,2.4
2019-02-24T22:45:05.773Z,2.3
2019-02-24T22:50:07.719Z,2.3
2019-02-24T22:55:05.108Z,2.4
2019-02-24T23:00:08.062Z,2.4
2019-02-24T23:05:07.934Z,2.3
2019-02-24T23:10:03.291Z,2.3
2019-02-24T23:15:05.734Z,2.2
2019-02-24T23:20:02.701Z,2.1
2019-02-24T23:25:05.168Z,2.1
2019-02-24T23:30:05.662Z,2
2019-02-24T23:35:10.594Z,1.9
2019-02-24T23:40:02.962Z,1.9
2019-02-24T23:45:09.640Z,1.9
2019-02-24T23:50:10.332Z,1.8
2019-02-24T23:55:02.667Z,1.8
